Airfield :
LOGIN :

Register | Disclaimer

   EN    FR    IT 

 










Legend :    VFR   Marginal VFR   IFR   Intensive IFR   Very Intensive IFR
Visi :
Ceiling :
>= 8 km
>= 3000ft
5 to 8 km
1000 to 3000 ft
1500m to 5 km
500 to 1000 ft
800 to 1500m
200 to 500 ft
< 800m
< 200 ft
Symbols :   Thunderstorms  Fog  Heavy snow  Heavy precipitations  Wind > 20 kt
SIGMETs :     Misc.  Thunderstorms  Icing  Turbulence  Mountain Waves  Volcanic Ashes







- Airport Elevation : 1188 ft


LKLN - Plzen Line

CURRENT METAR :
  • 211211Z AUTO 04006KT 350V090 9000 FEW009 BKN012 OVC014 03/02 Q1016

EXPIRED METARs :
  • 211200Z AUTO 03004KT 350V080 9000 -RA FEW008 OVC014 03/02 Q1016
  • 211113Z AUTO 03004KT 310V090 9999 FEW010 BKN014 OVC021 03/02 Q1016
  • 211100Z AUTO VRB04KT 9999 FEW010 OVC016 03/02 Q1015
  • 211022Z AUTO 04004KT 010V070 9999 FEW008 OVC017 03/02 Q1015
  • 211000Z AUTO 04005KT 330V080 8000 FEW008 BKN013 OVC018 03/01 Q1015
  • 210948Z AUTO 04005KT 330V070 8000 FEW008 BKN013 OVC018 03/02 Q1015

TAF N/A
No reported NOTAMs for that airfield.



MET'MAP, your aeronautical weather chart ! - Copyright ORBIFLY December 2007 - Disclaimer

ORBIFLY MET'MAP TEAM :

Programming & Development : Alexandra Zaïnal
Concept & Development : Baudouin d'Aumeries
Co-Development & Prog : Marc-Olivier Méhu
Technical & hardware support : Manuel Goepfert

Contact : metmap@orbifly.com




SOURCES & CREDITS :

   NOAA